METAR Data
IDs: Format: Raw Decoded Include TAF

Data at: 0146 UTC 20 Jul 2019

METAR for:KHSE (Hatteras/Mitchell Fl, NC, US)
Text:KHSE 200051Z AUTO 23011KT 8SM CLR 27/26 A2998 RMK AO2 SLP150 T02720261
Temperature: 27.2°C ( 81°F)
Dewpoint: 26.1°C ( 79°F) [RH = 94%]
Pressure (altimeter):29.98 inches Hg (1015.3 mb) [Sea level pressure: 1015.0 mb]
Winds:from the SW (230 degrees) at 13 MPH (11 knots; 5.7 m/s)
Visibility: 8 sm ( 13 km)
Ceiling:at least 12,000 feet AGL
Clouds:sky clear below 12,000 feet AGL
QC Flag:automated observation with no human augmentation
Text:KHSE 192351Z AUTO 23011KT 7SM CLR 28/26 A2998 RMK AO2 SLP152 T02780261 10311 20278 55000
Temperature: 27.8°C ( 82°F)
Dewpoint: 26.1°C ( 79°F) [RH = 91%]
Pressure (altimeter):29.98 inches Hg (1015.3 mb) [Sea level pressure: 1015.2 mb]
Winds:from the SW (230 degrees) at 13 MPH (11 knots; 5.7 m/s)
Visibility: 7 sm ( 11 km)
Ceiling:at least 12,000 feet AGL
Clouds:sky clear below 12,000 feet AGL
QC Flag:automated observation with no human augmentation
Text:KHSE 192251Z AUTO 23010KT 7SM CLR 28/26 A2998 RMK AO2 SLP150 T02780256
Temperature: 27.8°C ( 82°F)
Dewpoint: 25.6°C ( 78°F) [RH = 88%]
Pressure (altimeter):29.98 inches Hg (1015.3 mb) [Sea level pressure: 1015.0 mb]
Winds:from the SW (230 degrees) at 12 MPH (10 knots; 5.1 m/s)
Visibility: 7 sm ( 11 km)
Ceiling:at least 12,000 feet AGL
Clouds:sky clear below 12,000 feet AGL
QC Flag:automated observation with no human augmentation
Text:KHSE 192151Z AUTO 23009KT 8SM CLR 29/26 A2998 RMK AO2 LTG DSNT N AND NW SLP153 T02940256
Temperature: 29.4°C ( 85°F)
Dewpoint: 25.6°C ( 78°F) [RH = 80%]
Pressure (altimeter):29.98 inches Hg (1015.3 mb) [Sea level pressure: 1015.3 mb]
Winds:from the SW (230 degrees) at 10 MPH (9 knots; 4.6 m/s)
Visibility: 8 sm ( 13 km)
Ceiling:at least 12,000 feet AGL
Clouds:sky clear below 12,000 feet AGL
QC Flag:automated observation with no human augmentation
Text:KHSE 192051Z AUTO 23012G19KT 9SM CLR 30/26 A2998 RMK AO2 LTG DSNT N AND NW SLP152 T03000261 58013
Temperature: 30.0°C ( 86°F)
Dewpoint: 26.1°C ( 79°F) [RH = 80%]
Pressure (altimeter):29.98 inches Hg (1015.3 mb) [Sea level pressure: 1015.2 mb]
Winds:from the SW (230 degrees) at 14 MPH (12 knots; 6.2 m/s) gusting to 22 MPH (19 knots; 9.8 m/s)
Visibility: 9 sm ( 14 km)
Ceiling:at least 12,000 feet AGL
Clouds:sky clear below 12,000 feet AGL
QC Flag:automated observation with no human augmentation
Text:KHSE 191951Z AUTO 22010G20KT 9SM CLR 31/26 A3001 RMK AO2 SLP160 T03060261
Temperature: 30.6°C ( 87°F)
Dewpoint: 26.1°C ( 79°F) [RH = 77%]
Pressure (altimeter):30.01 inches Hg (1016.3 mb) [Sea level pressure: 1016.0 mb]
Winds:from the SW (220 degrees) at 12 MPH (10 knots; 5.1 m/s) gusting to 23 MPH (20 knots; 10.3 m/s)
Visibility: 9 sm ( 14 km)
Ceiling:at least 12,000 feet AGL
Clouds:sky clear below 12,000 feet AGL
QC Flag:automated observation with no human augmentation
Text:KHSE 191851Z AUTO 22011G17KT 10SM CLR 31/26 A3002 RMK AO2 SLP165 T03060261
Temperature: 30.6°C ( 87°F)
Dewpoint: 26.1°C ( 79°F) [RH = 77%]
Pressure (altimeter):30.02 inches Hg (1016.7 mb) [Sea level pressure: 1016.5 mb]
Winds:from the SW (220 degrees) at 13 MPH (11 knots; 5.7 m/s) gusting to 20 MPH (17 knots; 8.7 m/s)
Visibility:10 or more sm (16+ km)
Ceiling:at least 12,000 feet AGL
Clouds:sky clear below 12,000 feet AGL
QC Flag:automated observation with no human augmentation
Text:KHSE 191751Z AUTO 23011G19KT 10SM CLR 31/26 A3002 RMK AO2 SLP165 T03060256 10306 20272 56005
Temperature: 30.6°C ( 87°F)
Dewpoint: 25.6°C ( 78°F) [RH = 75%]
Pressure (altimeter):30.02 inches Hg (1016.7 mb) [Sea level pressure: 1016.5 mb]
Winds:from the SW (230 degrees) at 13 MPH (11 knots; 5.7 m/s) gusting to 22 MPH (19 knots; 9.8 m/s)
Visibility:10 or more sm (16+ km)
Ceiling:at least 12,000 feet AGL
Clouds:sky clear below 12,000 feet AGL
QC Flag:automated observation with no human augmentation
Text:KHSE 191651Z AUTO 23011G19KT 10SM CLR 31/25 A3003 RMK AO2 SLP168 T03060250
Temperature: 30.6°C ( 87°F)
Dewpoint: 25.0°C ( 77°F) [RH = 72%]
Pressure (altimeter):30.03 inches Hg (1017.0 mb) [Sea level pressure: 1016.8 mb]
Winds:from the SW (230 degrees) at 13 MPH (11 knots; 5.7 m/s) gusting to 22 MPH (19 knots; 9.8 m/s)
Visibility:10 or more sm (16+ km)
Ceiling:at least 12,000 feet AGL
Clouds:sky clear below 12,000 feet AGL
QC Flag:automated observation with no human augmentation
Text:KHSE 191551Z AUTO 23012G19KT 10SM CLR 30/25 A3003 RMK AO2 SLP167 T03000250
Temperature: 30.0°C ( 86°F)
Dewpoint: 25.0°C ( 77°F) [RH = 75%]
Pressure (altimeter):30.03 inches Hg (1017.0 mb) [Sea level pressure: 1016.7 mb]
Winds:from the SW (230 degrees) at 14 MPH (12 knots; 6.2 m/s) gusting to 22 MPH (19 knots; 9.8 m/s)
Visibility:10 or more sm (16+ km)
Ceiling:at least 12,000 feet AGL
Clouds:sky clear below 12,000 feet AGL
QC Flag:automated observation with no human augmentation
Text:KHSE 191451Z AUTO 24011KT 10SM CLR 29/24 A3004 RMK AO2 SLP170 T02940244 51008
Temperature: 29.4°C ( 85°F)
Dewpoint: 24.4°C ( 76°F) [RH = 75%]
Pressure (altimeter):30.04 inches Hg (1017.4 mb) [Sea level pressure: 1017.0 mb]
Winds:from the WSW (240 degrees) at 13 MPH (11 knots; 5.7 m/s)
Visibility:10 or more sm (16+ km)
Ceiling:at least 12,000 feet AGL
Clouds:sky clear below 12,000 feet AGL
QC Flag:automated observation with no human augmentation
Text:KHSE 191351Z AUTO 24010KT 10SM CLR 29/24 A3003 RMK AO2 SLP170 T02890244
Temperature: 28.9°C ( 84°F)
Dewpoint: 24.4°C ( 76°F) [RH = 77%]
Pressure (altimeter):30.03 inches Hg (1017.0 mb) [Sea level pressure: 1017.0 mb]
Winds:from the WSW (240 degrees) at 12 MPH (10 knots; 5.1 m/s)
Visibility:10 or more sm (16+ km)
Ceiling:at least 12,000 feet AGL
Clouds:sky clear below 12,000 feet AGL
QC Flag:automated observation with no human augmentation
Text:KHSE 191251Z AUTO 24009G15KT 8SM CLR 28/24 A3003 RMK AO2 SLP167 T02830244
Temperature: 28.3°C ( 83°F)
Dewpoint: 24.4°C ( 76°F) [RH = 79%]
Pressure (altimeter):30.03 inches Hg (1017.0 mb) [Sea level pressure: 1016.7 mb]
Winds:from the WSW (240 degrees) at 10 MPH (9 knots; 4.6 m/s) gusting to 17 MPH (15 knots; 7.7 m/s)
Visibility: 8 sm ( 13 km)
Ceiling:at least 12,000 feet AGL
Clouds:sky clear below 12,000 feet AGL
QC Flag:automated observation with no human augmentation
Text:KHSE 191151Z AUTO 24009KT 6SM BR CLR 27/25 A3001 RMK AO2 SLP162 T02720250 10272 20261 51014
Temperature: 27.2°C ( 81°F)
Dewpoint: 25.0°C ( 77°F) [RH = 88%]
Pressure (altimeter):30.01 inches Hg (1016.3 mb) [Sea level pressure: 1016.2 mb]
Winds:from the WSW (240 degrees) at 10 MPH (9 knots; 4.6 m/s)
Visibility: 6 sm ( 10 km)
Ceiling:at least 12,000 feet AGL
Clouds:sky clear below 12,000 feet AGL
Weather:BR (mist)
QC Flag:automated observation with no human augmentation
Text:KHSE 191051Z AUTO 25007KT 7SM CLR 27/24 A3000 RMK AO2 SLP160 T02670244
Temperature: 26.7°C ( 80°F)
Dewpoint: 24.4°C ( 76°F) [RH = 87%]
Pressure (altimeter):30.00 inches Hg (1016.0 mb) [Sea level pressure: 1016.0 mb]
Winds:from the WSW (250 degrees) at 8 MPH (7 knots; 3.6 m/s)
Visibility: 7 sm ( 11 km)
Ceiling:at least 12,000 feet AGL
Clouds:sky clear below 12,000 feet AGL
QC Flag:automated observation with no human augmentation
Text:KHSE 190951Z AUTO 24008KT 7SM CLR 26/24 A2999 RMK AO2 SLP154 T02610244
Temperature: 26.1°C ( 79°F)
Dewpoint: 24.4°C ( 76°F) [RH = 90%]
Pressure (altimeter):29.99 inches Hg (1015.7 mb) [Sea level pressure: 1015.4 mb]
Winds:from the WSW (240 degrees) at 9 MPH (8 knots; 4.1 m/s)
Visibility: 7 sm ( 11 km)
Ceiling:at least 12,000 feet AGL
Clouds:sky clear below 12,000 feet AGL
QC Flag:automated observation with no human augmentation
Text:KHSE 190851Z AUTO 24009KT 6SM BR CLR 27/26 A2997 RMK AO2 SLP148 T02670256 56005
Temperature: 26.7°C ( 80°F)
Dewpoint: 25.6°C ( 78°F) [RH = 94%]
Pressure (altimeter):29.97 inches Hg (1015.0 mb) [Sea level pressure: 1014.8 mb]
Winds:from the WSW (240 degrees) at 10 MPH (9 knots; 4.6 m/s)
Visibility: 6 sm ( 10 km)
Ceiling:at least 12,000 feet AGL
Clouds:sky clear below 12,000 feet AGL
Weather:BR (mist)
QC Flag:automated observation with no human augmentation
Text:KHSE 190832Z AUTO 24008KT 5SM BR SCT016 27/26 A2997 RMK AO2 T02670256
Temperature: 26.7°C ( 80°F)
Dewpoint: 25.6°C ( 78°F) [RH = 94%]
Pressure (altimeter):29.97 inches Hg (1015.0 mb)
Winds:from the WSW (240 degrees) at 9 MPH (8 knots; 4.1 m/s)
Visibility: 5 sm ( 8 km)
Ceiling:at least 12,000 feet AGL
Clouds: scattered clouds at 1600 feet AGL
Weather:BR (mist)
QC Flag:automated observation with no human augmentation
Text:KHSE 190800Z AUTO 24008KT 5SM BR BKN016 27/26 A2997 RMK AO2 T02670256
Temperature: 26.7°C ( 80°F)
Dewpoint: 25.6°C ( 78°F) [RH = 94%]
Pressure (altimeter):29.97 inches Hg (1015.0 mb)
Winds:from the WSW (240 degrees) at 9 MPH (8 knots; 4.1 m/s)
Visibility: 5 sm ( 8 km)
Ceiling:1600 feet AGL
Clouds: broken clouds at 1600 feet AGL
Weather:BR (mist)
QC Flag:automated observation with no human augmentation
Text:KHSE 190751Z AUTO 24008KT 6SM BR SCT016 27/26 A2997 RMK AO2 SLP148 T02670256
Temperature: 26.7°C ( 80°F)
Dewpoint: 25.6°C ( 78°F) [RH = 94%]
Pressure (altimeter):29.97 inches Hg (1015.0 mb) [Sea level pressure: 1014.8 mb]
Winds:from the WSW (240 degrees) at 9 MPH (8 knots; 4.1 m/s)
Visibility: 6 sm ( 10 km)
Ceiling:at least 12,000 feet AGL
Clouds: scattered clouds at 1600 feet AGL
Weather:BR (mist)
QC Flag:automated observation with no human augmentation
Text:KHSE 190718Z AUTO 24008KT 6SM BR BKN016 27/26 A2997 RMK AO2 T02670256
Temperature: 26.7°C ( 80°F)
Dewpoint: 25.6°C ( 78°F) [RH = 94%]
Pressure (altimeter):29.97 inches Hg (1015.0 mb)
Winds:from the WSW (240 degrees) at 9 MPH (8 knots; 4.1 m/s)
Visibility: 6 sm ( 10 km)
Ceiling:1600 feet AGL
Clouds: broken clouds at 1600 feet AGL
Weather:BR (mist)
QC Flag:automated observation with no human augmentation
Text:KHSE 190651Z AUTO 23010KT 6SM BR CLR 27/26 A2997 RMK AO2 SLP149 T02720261
Temperature: 27.2°C ( 81°F)
Dewpoint: 26.1°C ( 79°F) [RH = 94%]
Pressure (altimeter):29.97 inches Hg (1015.0 mb) [Sea level pressure: 1014.9 mb]
Winds:from the SW (230 degrees) at 12 MPH (10 knots; 5.1 m/s)
Visibility: 6 sm ( 10 km)
Ceiling:at least 12,000 feet AGL
Clouds:sky clear below 12,000 feet AGL
Weather:BR (mist)
QC Flag:automated observation with no human augmentation
Text:KHSE 190551Z AUTO 24012KT 6SM BR CLR 27/26 A2998 RMK AO2 SLP153 T02720256 10278 20272 58004
Temperature: 27.2°C ( 81°F)
Dewpoint: 25.6°C ( 78°F) [RH = 91%]
Pressure (altimeter):29.98 inches Hg (1015.3 mb) [Sea level pressure: 1015.3 mb]
Winds:from the WSW (240 degrees) at 14 MPH (12 knots; 6.2 m/s)
Visibility: 6 sm ( 10 km)
Ceiling:at least 12,000 feet AGL
Clouds:sky clear below 12,000 feet AGL
Weather:BR (mist)
QC Flag:automated observation with no human augmentation
Text:KHSE 190451Z AUTO 23013G20KT 7SM CLR 27/26 A2999 RMK AO2 SLP156 T02720256 403060267
Temperature: 27.2°C ( 81°F)
Dewpoint: 25.6°C ( 78°F) [RH = 91%]
Pressure (altimeter):29.99 inches Hg (1015.7 mb) [Sea level pressure: 1015.6 mb]
Winds:from the SW (230 degrees) at 15 MPH (13 knots; 6.7 m/s) gusting to 23 MPH (20 knots; 10.3 m/s)
Visibility: 7 sm ( 11 km)
Ceiling:at least 12,000 feet AGL
Clouds:sky clear below 12,000 feet AGL
QC Flag:automated observation with no human augmentation
Text:KHSE 190351Z AUTO 24012KT 7SM SCT016 27/26 A3001 RMK AO2 SLP163 T02720261
Temperature: 27.2°C ( 81°F)
Dewpoint: 26.1°C ( 79°F) [RH = 94%]
Pressure (altimeter):30.01 inches Hg (1016.3 mb) [Sea level pressure: 1016.3 mb]
Winds:from the WSW (240 degrees) at 14 MPH (12 knots; 6.2 m/s)
Visibility: 7 sm ( 11 km)
Ceiling:at least 12,000 feet AGL
Clouds: scattered clouds at 1600 feet AGL
QC Flag:automated observation with no human augmentation
Text:KHSE 190316Z AUTO 24013G19KT 7SM SCT014 27/26 A3001 RMK AO2 T02720261
Temperature: 27.2°C ( 81°F)
Dewpoint: 26.1°C ( 79°F) [RH = 94%]
Pressure (altimeter):30.01 inches Hg (1016.3 mb)
Winds:from the WSW (240 degrees) at 15 MPH (13 knots; 6.7 m/s) gusting to 22 MPH (19 knots; 9.8 m/s)
Visibility: 7 sm ( 11 km)
Ceiling:at least 12,000 feet AGL
Clouds: scattered clouds at 1400 feet AGL
QC Flag:automated observation with no human augmentation
Text:KHSE 190305Z AUTO 23011KT 6SM BR BKN014 27/26 A3000 RMK AO2 T02720261
Temperature: 27.2°C ( 81°F)
Dewpoint: 26.1°C ( 79°F) [RH = 94%]
Pressure (altimeter):30.00 inches Hg (1016.0 mb)
Winds:from the SW (230 degrees) at 13 MPH (11 knots; 5.7 m/s)
Visibility: 6 sm ( 10 km)
Ceiling:1400 feet AGL
Clouds: broken clouds at 1400 feet AGL
Weather:BR (mist)
QC Flag:automated observation with no human augmentation
Text:KHSE 190251Z AUTO 23011G18KT 7SM FEW014 27/26 A3000 RMK AO2 SLP157 T02720261 53015
Temperature: 27.2°C ( 81°F)
Dewpoint: 26.1°C ( 79°F) [RH = 94%]
Pressure (altimeter):30.00 inches Hg (1016.0 mb) [Sea level pressure: 1015.7 mb]
Winds:from the SW (230 degrees) at 13 MPH (11 knots; 5.7 m/s) gusting to 21 MPH (18 knots; 9.3 m/s)
Visibility: 7 sm ( 11 km)
Ceiling:at least 12,000 feet AGL
Clouds: few clouds at 1400 feet AGL
QC Flag:automated observation with no human augmentation
Text:KHSE 190151Z AUTO 23011G19KT 7SM SCT014 28/26 A2998 RMK AO2 SLP150 T02780261
Temperature: 27.8°C ( 82°F)
Dewpoint: 26.1°C ( 79°F) [RH = 91%]
Pressure (altimeter):29.98 inches Hg (1015.3 mb) [Sea level pressure: 1015.0 mb]
Winds:from the SW (230 degrees) at 13 MPH (11 knots; 5.7 m/s) gusting to 22 MPH (19 knots; 9.8 m/s)
Visibility: 7 sm ( 11 km)
Ceiling:at least 12,000 feet AGL
Clouds: scattered clouds at 1400 feet AGL
QC Flag:automated observation with no human augmentation
Text:KHSE 190051Z AUTO 22012KT 7SM CLR 28/26 A2996 RMK AO2 SLP146 T02780261
Temperature: 27.8°C ( 82°F)
Dewpoint: 26.1°C ( 79°F) [RH = 91%]
Pressure (altimeter):29.96 inches Hg (1014.6 mb) [Sea level pressure: 1014.6 mb]
Winds:from the SW (220 degrees) at 14 MPH (12 knots; 6.2 m/s)
Visibility: 7 sm ( 11 km)
Ceiling:at least 12,000 feet AGL
Clouds:sky clear below 12,000 feet AGL
QC Flag:automated observation with no human augmentation
Text:KHSE 182351Z AUTO 22011KT 5SM BR CLR 28/26 A2995 RMK AO2 SLP143 T02780261 10306 20278 58001
Temperature: 27.8°C ( 82°F)
Dewpoint: 26.1°C ( 79°F) [RH = 91%]
Pressure (altimeter):29.95 inches Hg (1014.3 mb) [Sea level pressure: 1014.3 mb]
Winds:from the SW (220 degrees) at 13 MPH (11 knots; 5.7 m/s)
Visibility: 5 sm ( 8 km)
Ceiling:at least 12,000 feet AGL
Clouds:sky clear below 12,000 feet AGL
Weather:BR (mist)
QC Flag:automated observation with no human augmentation
Text:KHSE 182251Z AUTO 22010G17KT 6SM HZ CLR 29/26 A2996 RMK AO2 SLP146 T02890261
Temperature: 28.9°C ( 84°F)
Dewpoint: 26.1°C ( 79°F) [RH = 85%]
Pressure (altimeter):29.96 inches Hg (1014.6 mb) [Sea level pressure: 1014.6 mb]
Winds:from the SW (220 degrees) at 12 MPH (10 knots; 5.1 m/s) gusting to 20 MPH (17 knots; 8.7 m/s)
Visibility: 6 sm ( 10 km)
Ceiling:at least 12,000 feet AGL
Clouds:sky clear below 12,000 feet AGL
Weather:HZ (haze)
QC Flag:automated observation with no human augmentation
Text:KHSE 182151Z AUTO 22011G18KT 7SM CLR 30/26 A2995 RMK AO2 SLP143 T03000261
Temperature: 30.0°C ( 86°F)
Dewpoint: 26.1°C ( 79°F) [RH = 80%]
Pressure (altimeter):29.95 inches Hg (1014.3 mb) [Sea level pressure: 1014.3 mb]
Winds:from the SW (220 degrees) at 13 MPH (11 knots; 5.7 m/s) gusting to 21 MPH (18 knots; 9.3 m/s)
Visibility: 7 sm ( 11 km)
Ceiling:at least 12,000 feet AGL
Clouds:sky clear below 12,000 feet AGL
QC Flag:automated observation with no human augmentation
Text:KHSE 182051Z AUTO 22011G19KT 8SM CLR 30/26 A2996 RMK AO2 LTG DSNT NW SLP144 T03000261 57012
Temperature: 30.0°C ( 86°F)
Dewpoint: 26.1°C ( 79°F) [RH = 80%]
Pressure (altimeter):29.96 inches Hg (1014.6 mb) [Sea level pressure: 1014.4 mb]
Winds:from the SW (220 degrees) at 13 MPH (11 knots; 5.7 m/s) gusting to 22 MPH (19 knots; 9.8 m/s)
Visibility: 8 sm ( 13 km)
Ceiling:at least 12,000 feet AGL
Clouds:sky clear below 12,000 feet AGL
QC Flag:automated observation with no human augmentation
Text:KHSE 181951Z AUTO 21011KT 7SM CLR 29/26 A2997 RMK AO2 SLP149 T02940261
Temperature: 29.4°C ( 85°F)
Dewpoint: 26.1°C ( 79°F) [RH = 82%]
Pressure (altimeter):29.97 inches Hg (1015.0 mb) [Sea level pressure: 1014.9 mb]
Winds:from the SSW (210 degrees) at 13 MPH (11 knots; 5.7 m/s)
Visibility: 7 sm ( 11 km)
Ceiling:at least 12,000 feet AGL
Clouds:sky clear below 12,000 feet AGL
QC Flag:automated observation with no human augmentation
Text:KHSE 181851Z AUTO 21012G18KT 7SM CLR 29/26 A2998 RMK AO2 SLP152 T02940261
Temperature: 29.4°C ( 85°F)
Dewpoint: 26.1°C ( 79°F) [RH = 82%]
Pressure (altimeter):29.98 inches Hg (1015.3 mb) [Sea level pressure: 1015.2 mb]
Winds:from the SSW (210 degrees) at 14 MPH (12 knots; 6.2 m/s) gusting to 21 MPH (18 knots; 9.3 m/s)
Visibility: 7 sm ( 11 km)
Ceiling:at least 12,000 feet AGL
Clouds:sky clear below 12,000 feet AGL
QC Flag:automated observation with no human augmentation
Text:KHSE 181751Z AUTO 21012KT 7SM FEW012 30/27 A3000 RMK AO2 SLP157 T03000267 10300 20278 58006
Temperature: 30.0°C ( 86°F)
Dewpoint: 26.7°C ( 80°F) [RH = 83%]
Pressure (altimeter):30.00 inches Hg (1016.0 mb) [Sea level pressure: 1015.7 mb]
Winds:from the SSW (210 degrees) at 14 MPH (12 knots; 6.2 m/s)
Visibility: 7 sm ( 11 km)
Ceiling:at least 12,000 feet AGL
Clouds: few clouds at 1200 feet AGL
QC Flag:automated observation with no human augmentation
Text:KHSE 181651Z AUTO 21011KT 7SM CLR 29/26 A3001 RMK AO2 SLP161 T02940261
Temperature: 29.4°C ( 85°F)
Dewpoint: 26.1°C ( 79°F) [RH = 82%]
Pressure (altimeter):30.01 inches Hg (1016.3 mb) [Sea level pressure: 1016.1 mb]
Winds:from the SSW (210 degrees) at 13 MPH (11 knots; 5.7 m/s)
Visibility: 7 sm ( 11 km)
Ceiling:at least 12,000 feet AGL
Clouds:sky clear below 12,000 feet AGL
QC Flag:automated observation with no human augmentation
Text:KHSE 181551Z AUTO 22010G16KT 7SM FEW025 29/26 A3001 RMK AO2 SLP160 T02940261
Temperature: 29.4°C ( 85°F)
Dewpoint: 26.1°C ( 79°F) [RH = 82%]
Pressure (altimeter):30.01 inches Hg (1016.3 mb) [Sea level pressure: 1016.0 mb]
Winds:from the SW (220 degrees) at 12 MPH (10 knots; 5.1 m/s) gusting to 18 MPH (16 knots; 8.2 m/s)
Visibility: 7 sm ( 11 km)
Ceiling:at least 12,000 feet AGL
Clouds: few clouds at 2500 feet AGL
QC Flag:automated observation with no human augmentation
Text:KHSE 181451Z AUTO 22010G16KT 8SM CLR 29/26 A3001 RMK AO2 SLP162 T02940261 51002
Temperature: 29.4°C ( 85°F)
Dewpoint: 26.1°C ( 79°F) [RH = 82%]
Pressure (altimeter):30.01 inches Hg (1016.3 mb) [Sea level pressure: 1016.2 mb]
Winds:from the SW (220 degrees) at 12 MPH (10 knots; 5.1 m/s) gusting to 18 MPH (16 knots; 8.2 m/s)
Visibility: 8 sm ( 13 km)
Ceiling:at least 12,000 feet AGL
Clouds:sky clear below 12,000 feet AGL
QC Flag:automated observation with no human augmentation
Text:KHSE 181351Z AUTO 22010KT 9SM CLR 30/26 A3001 RMK AO2 SLP162 T03000261
Temperature: 30.0°C ( 86°F)
Dewpoint: 26.1°C ( 79°F) [RH = 80%]
Pressure (altimeter):30.01 inches Hg (1016.3 mb) [Sea level pressure: 1016.2 mb]
Winds:from the SW (220 degrees) at 12 MPH (10 knots; 5.1 m/s)
Visibility: 9 sm ( 14 km)
Ceiling:at least 12,000 feet AGL
Clouds:sky clear below 12,000 feet AGL
QC Flag:automated observation with no human augmentation